createdAt,value
2018-07-19T00:00:47.489Z,45.50
2018-07-19T00:03:15.302Z,47.40
2018-07-19T00:05:43.051Z,45.50
2018-07-19T00:08:10.895Z,45.60
2018-07-19T00:10:38.639Z,45.70
2018-07-19T00:13:06.354Z,45.70
2018-07-19T00:15:34.096Z,45.50
2018-07-19T00:18:01.872Z,45.50
2018-07-19T00:20:29.588Z,45.40
2018-07-19T00:22:57.374Z,46.00
2018-07-19T00:25:25.083Z,46.10
2018-07-19T00:27:52.965Z,46.10
2018-07-19T00:30:20.700Z,46.10
2018-07-19T00:32:48.418Z,45.80
2018-07-19T00:35:16.307Z,46.10
2018-07-19T00:37:44.054Z,46.10
2018-07-19T00:40:12.057Z,46.00
2018-07-19T00:42:39.877Z,46.20
2018-07-19T00:45:07.611Z,46.60
2018-07-19T00:47:35.433Z,46.90
2018-07-19T00:50:03.606Z,46.90
2018-07-19T00:52:31.345Z,46.80
2018-07-19T00:54:59.139Z,46.90
2018-07-19T00:57:26.893Z,47.00
2018-07-19T00:59:54.578Z,46.40
2018-07-19T01:02:22.391Z,47.50
2018-07-19T01:04:50.162Z,47.60
2018-07-19T01:07:17.929Z,47.90
2018-07-19T01:09:45.646Z,48.20
2018-07-19T01:12:13.470Z,48.20
2018-07-19T01:14:41.187Z,47.90
2018-07-19T01:17:08.917Z,48.00
2018-07-19T01:19:36.669Z,47.90
2018-07-19T01:22:04.473Z,47.80
2018-07-19T01:24:32.204Z,47.90
2018-07-19T01:26:59.954Z,48.20
2018-07-19T01:29:27.739Z,48.10
2018-07-19T01:31:55.451Z,48.10
2018-07-19T01:34:23.274Z,48.00
2018-07-19T01:36:51.046Z,48.00
2018-07-19T01:39:18.826Z,47.90
2018-07-19T01:42:34.897Z,47.50
2018-07-19T01:45:02.625Z,47.20
2018-07-19T01:47:31.419Z,47.50
2018-07-19T01:49:59.261Z,47.60
2018-07-19T01:52:26.998Z,47.80
2018-07-19T01:54:54.742Z,47.50
2018-07-19T01:57:22.482Z,47.20
2018-07-19T01:59:50.491Z,47.60
2018-07-19T02:02:18.505Z,47.60
2018-07-19T02:04:46.365Z,48.10
2018-07-19T02:07:14.224Z,48.40
2018-07-19T02:09:42.150Z,48.50
2018-07-19T02:12:10.074Z,48.30
2018-07-19T02:14:37.820Z,47.80
2018-07-19T02:17:05.806Z,47.20
2018-07-19T02:19:33.562Z,46.90
2018-07-19T02:22:01.393Z,46.10
2018-07-19T02:24:29.130Z,45.40
2018-07-19T02:26:56.837Z,45.00
2018-07-19T02:29:24.537Z,44.80
2018-07-19T02:31:52.281Z,45.20
2018-07-19T02:34:20.104Z,44.40
2018-07-19T02:36:47.866Z,44.50
2018-07-19T02:39:15.794Z,44.60
2018-07-19T02:41:43.552Z,44.20
2018-07-19T02:44:12.412Z,44.10
2018-07-19T02:46:41.173Z,44.00
2018-07-19T02:49:09.174Z,44.10
2018-07-19T02:51:37.644Z,44.00
2018-07-19T02:54:05.458Z,44.10
2018-07-19T02:56:34.141Z,44.10
2018-07-19T02:59:02.027Z,44.20
2018-07-19T03:01:29.770Z,44.70
2018-07-19T03:03:57.516Z,43.50
2018-07-19T03:06:25.312Z,43.20
2018-07-19T03:08:53.134Z,43.20
2018-07-19T03:11:21.055Z,43.20
2018-07-19T03:13:48.883Z,43.00
2018-07-19T03:16:16.872Z,43.00
2018-07-19T03:18:44.634Z,42.70
2018-07-19T03:21:12.447Z,42.60
2018-07-19T03:23:40.501Z,42.70
2018-07-19T03:26:08.242Z,42.80
2018-07-19T03:28:35.961Z,42.70
2018-07-19T03:31:03.814Z,42.60
2018-07-19T03:33:31.642Z,43.40
2018-07-19T03:35:59.533Z,43.50
2018-07-19T03:38:27.434Z,43.70
2018-07-19T03:40:56.265Z,43.50
2018-07-19T03:43:24.219Z,43.40
2018-07-19T03:45:52.178Z,43.00
2018-07-19T03:48:20.005Z,42.90
2018-07-19T03:50:47.757Z,43.20
2018-07-19T03:53:15.596Z,43.60
2018-07-19T03:55:43.333Z,44.40
2018-07-19T03:58:11.059Z,44.90
2018-07-19T04:00:38.824Z,45.50
2018-07-19T04:03:06.628Z,45.00
2018-07-19T04:05:34.393Z,45.00
2018-07-19T04:08:02.112Z,45.30
2018-07-19T04:10:29.819Z,45.50
2018-07-19T04:12:57.577Z,46.20
2018-07-19T04:15:25.301Z,46.20
2018-07-19T04:17:56.909Z,46.00
2018-07-19T04:20:25.861Z,45.70
2018-07-19T04:22:54.407Z,45.50
2018-07-19T04:25:22.745Z,45.80
2018-07-19T04:27:50.667Z,45.60
2018-07-19T04:30:18.497Z,45.90
2018-07-19T04:32:46.283Z,45.70
2018-07-19T04:35:14.021Z,46.00
2018-07-19T04:40:09.564Z,46.20
2018-07-19T04:42:37.306Z,46.60
2018-07-19T04:45:05.481Z,46.50
2018-07-19T04:47:33.269Z,46.20
2018-07-19T04:50:00.962Z,46.00
2018-07-19T04:52:28.752Z,46.30
2018-07-19T04:54:56.537Z,46.70
2018-07-19T04:57:24.405Z,46.80
2018-07-19T04:59:52.155Z,46.60
2018-07-19T05:02:20.277Z,46.30
2018-07-19T05:04:48.002Z,45.90
2018-07-19T05:07:16.055Z,46.90
2018-07-19T05:09:43.772Z,45.90
2018-07-19T05:12:11.519Z,45.70
2018-07-19T05:14:39.254Z,45.50
2018-07-19T05:17:06.955Z,44.80
2018-07-19T05:19:34.678Z,44.80
2018-07-19T05:22:02.433Z,44.50
2018-07-19T05:24:30.159Z,44.40
2018-07-19T05:26:57.938Z,44.50
2018-07-19T05:29:25.646Z,44.70
2018-07-19T05:31:53.421Z,44.30
2018-07-19T05:34:21.185Z,45.00
2018-07-19T05:36:49.115Z,45.20
2018-07-19T05:39:16.946Z,45.60
2018-07-19T05:41:44.763Z,46.40
2018-07-19T05:44:12.663Z,44.50
2018-07-19T05:46:40.393Z,45.20
2018-07-19T05:51:35.946Z,43.70
2018-07-19T05:54:03.739Z,43.70
2018-07-19T05:56:31.492Z,43.70
2018-07-19T05:58:59.214Z,43.40
2018-07-19T06:01:26.965Z,43.10
2018-07-19T06:03:54.770Z,43.00
2018-07-19T06:06:22.503Z,42.30
2018-07-19T06:08:50.291Z,42.10
2018-07-19T06:11:18.143Z,41.80
2018-07-19T06:13:45.858Z,41.50
2018-07-19T06:16:13.716Z,40.90
2018-07-19T06:18:41.688Z,41.20
2018-07-19T06:21:09.349Z,41.40
2018-07-19T06:23:37.070Z,41.10
2018-07-19T06:26:04.938Z,40.60
2018-07-19T06:28:32.685Z,40.10
2018-07-19T06:31:00.573Z,39.80
2018-07-19T06:33:28.497Z,39.30
2018-07-19T06:35:56.590Z,39.20
2018-07-19T06:38:24.306Z,39.00
2018-07-19T06:40:52.029Z,38.00
2018-07-19T06:43:19.725Z,37.60
2018-07-19T06:45:47.464Z,37.20
2018-07-19T06:48:15.190Z,37.20
2018-07-19T06:50:43.007Z,37.10
2018-07-19T06:53:10.776Z,37.30
2018-07-19T06:55:38.498Z,37.50
2018-07-19T06:58:06.245Z,36.50
2018-07-19T07:00:33.975Z,36.10
2018-07-19T07:03:01.858Z,35.80
2018-07-19T07:05:29.589Z,35.70
2018-07-19T07:07:57.373Z,35.40
2018-07-19T07:12:52.777Z,34.50
2018-07-19T07:15:20.551Z,34.10
2018-07-19T07:17:48.245Z,34.10
2018-07-19T07:20:16.077Z,34.10
2018-07-19T07:22:43.795Z,34.50
2018-07-19T07:25:11.518Z,33.90
2018-07-19T07:27:39.247Z,34.00
2018-07-19T07:30:06.990Z,34.50
2018-07-19T07:32:34.784Z,35.00
2018-07-19T07:35:02.559Z,34.80
2018-07-19T07:37:30.290Z,33.60
2018-07-19T07:39:58.041Z,33.50
2018-07-19T07:42:25.725Z,33.40
2018-07-19T07:44:53.430Z,33.10
2018-07-19T07:47:21.133Z,33.10
2018-07-19T07:49:48.880Z,32.80
2018-07-19T07:52:16.614Z,32.90
2018-07-19T07:54:44.348Z,32.40
2018-07-19T07:57:12.093Z,32.50
2018-07-19T07:59:40.082Z,32.30
2018-07-19T08:02:08.045Z,31.70
2018-07-19T08:04:35.767Z,31.40
2018-07-19T08:07:03.537Z,31.10
2018-07-19T08:09:31.836Z,31.10
2018-07-19T08:14:27.311Z,30.00
2018-07-19T08:16:55.004Z,29.60
2018-07-19T08:19:22.713Z,29.10
2018-07-19T08:21:50.436Z,29.00
2018-07-19T08:24:18.200Z,28.90
2018-07-19T08:26:45.934Z,29.50
2018-07-19T08:29:13.654Z,28.50
2018-07-19T08:31:41.438Z,28.40
2018-07-19T08:34:09.211Z,28.60
2018-07-19T08:36:36.953Z,27.90
2018-07-19T08:39:08.968Z,27.50
2018-07-19T08:41:36.703Z,27.40
2018-07-19T08:44:04.505Z,27.00
2018-07-19T08:46:32.283Z,27.00
2018-07-19T08:49:00.059Z,28.20
2018-07-19T08:53:55.986Z,27.00
2018-07-19T08:56:23.885Z,26.60
2018-07-19T08:58:51.593Z,26.60
2018-07-19T09:01:19.319Z,26.60
2018-07-19T09:03:47.026Z,26.10
2018-07-19T09:06:14.774Z,25.90
2018-07-19T09:08:42.470Z,25.60
2018-07-19T09:11:10.187Z,25.40
2018-07-19T09:13:38.695Z,25.40
2018-07-19T09:16:06.398Z,25.00
2018-07-19T09:18:34.119Z,24.60
2018-07-19T09:21:01.830Z,24.10
2018-07-19T09:23:29.563Z,24.70
2018-07-19T09:25:57.279Z,24.50
2018-07-19T09:28:25.108Z,24.50
2018-07-19T09:30:52.836Z,23.80
2018-07-19T09:33:20.875Z,23.40
2018-07-19T09:35:48.582Z,23.00
2018-07-19T09:38:16.353Z,22.60
2018-07-19T09:40:44.966Z,22.50
2018-07-19T09:43:13.496Z,22.60
2018-07-19T09:45:41.472Z,22.20
2018-07-19T09:48:09.223Z,22.40
2018-07-19T09:50:38.001Z,22.30
2018-07-19T09:53:06.020Z,22.10
2018-07-19T09:55:33.788Z,21.50
2018-07-19T10:00:34.975Z,21.90
2018-07-19T10:03:02.722Z,22.10
2018-07-19T10:05:30.487Z,21.60
2018-07-19T10:07:58.187Z,21.30
2018-07-19T10:10:25.898Z,20.90
2018-07-19T10:12:53.662Z,20.80
2018-07-19T10:15:21.416Z,20.30
2018-07-19T10:17:49.141Z,20.60
2018-07-19T10:20:16.902Z,20.60
2018-07-19T10:22:44.578Z,21.20
2018-07-19T10:25:12.295Z,21.10
2018-07-19T10:27:40.050Z,21.70
2018-07-19T10:30:08.096Z,22.50
2018-07-19T10:32:35.931Z,22.40
2018-07-19T10:35:03.935Z,21.40
2018-07-19T10:37:31.731Z,21.20
2018-07-19T10:39:59.455Z,20.60
2018-07-19T10:42:27.490Z,20.70
2018-07-19T10:44:55.206Z,20.70
2018-07-19T10:47:22.894Z,21.30
2018-07-19T10:49:50.609Z,20.60
2018-07-19T10:52:18.325Z,20.50
2018-07-19T10:54:46.973Z,20.10
2018-07-19T10:57:14.771Z,19.60
2018-07-19T10:59:42.492Z,19.30
2018-07-19T11:02:11.372Z,19.10
2018-07-19T11:04:39.147Z,18.90
2018-07-19T11:07:07.264Z,18.80
2018-07-19T11:09:35.167Z,18.70
2018-07-19T11:12:02.877Z,18.80
2018-07-19T11:14:30.797Z,19.70
2018-07-19T11:16:58.685Z,20.90
2018-07-19T11:19:26.402Z,20.70
2018-07-19T11:21:54.093Z,21.90
2018-07-19T11:24:21.862Z,21.80
2018-07-19T11:26:49.535Z,21.90
2018-07-19T11:29:17.332Z,21.70
2018-07-19T11:31:45.282Z,21.50
2018-07-19T11:34:13.001Z,22.00
2018-07-19T11:36:40.714Z,22.10
2018-07-19T11:40:38.029Z,22.20
2018-07-19T11:43:05.754Z,23.00
2018-07-19T11:45:33.475Z,22.50
2018-07-19T11:48:01.206Z,22.40
2018-07-19T11:50:28.992Z,21.50
2018-07-19T11:52:56.718Z,21.30
2018-07-19T11:55:24.493Z,20.40
2018-07-19T11:57:52.519Z,20.10
2018-07-19T12:00:21.041Z,19.40
2018-07-19T12:02:49.789Z,18.90
2018-07-19T12:05:17.979Z,19.10
2018-07-19T12:07:45.987Z,18.90
2018-07-19T12:10:13.816Z,18.40
2018-07-19T12:12:41.579Z,18.70
2018-07-19T12:15:09.440Z,18.70
2018-07-19T12:17:37.247Z,18.60
2018-07-19T12:20:05.371Z,18.60
2018-07-19T12:22:34.006Z,18.50
2018-07-19T12:25:01.795Z,18.60
2018-07-19T12:27:29.618Z,18.80
2018-07-19T12:29:57.543Z,19.10
2018-07-19T12:32:25.477Z,19.60
2018-07-19T12:34:53.322Z,19.70
2018-07-19T12:37:21.388Z,19.40
2018-07-19T12:39:49.853Z,19.70
2018-07-19T12:42:17.645Z,19.90
2018-07-19T12:44:45.361Z,19.60
2018-07-19T12:47:13.142Z,19.20
2018-07-19T12:49:40.929Z,19.30
2018-07-19T12:52:08.679Z,19.80
2018-07-19T12:54:36.310Z,19.30
2018-07-19T12:57:04.127Z,19.40
2018-07-19T12:59:31.754Z,19.50
2018-07-19T13:01:59.461Z,19.80
2018-07-19T13:04:27.138Z,20.40
2018-07-19T13:06:54.879Z,20.40
2018-07-19T13:09:22.634Z,20.00
2018-07-19T13:11:51.308Z,19.90
2018-07-19T13:14:19.127Z,19.80
2018-07-19T13:16:46.844Z,19.70
2018-07-19T13:19:14.631Z,19.50
2018-07-19T13:21:42.349Z,19.60
2018-07-19T13:24:10.107Z,19.10
2018-07-19T13:26:37.887Z,19.20
2018-07-19T13:29:05.714Z,19.40
2018-07-19T13:31:33.483Z,19.40
2018-07-19T13:34:01.206Z,19.60
2018-07-19T13:36:28.991Z,19.00
2018-07-19T13:38:56.999Z,18.90
2018-07-19T13:44:05.061Z,18.30
2018-07-19T13:46:32.817Z,20.60
2018-07-19T13:49:00.534Z,19.20
2018-07-19T13:51:28.275Z,19.10
2018-07-19T13:54:25.324Z,20.00
2018-07-19T14:01:28.054Z,20.00
2018-07-19T14:03:55.863Z,18.60
2018-07-19T14:06:23.630Z,18.10
2018-07-19T14:08:51.325Z,18.10
2018-07-19T14:11:19.139Z,17.90
2018-07-19T14:13:47.473Z,18.30
2018-07-19T14:16:15.319Z,18.40
2018-07-19T14:18:43.053Z,18.70
2018-07-19T14:21:10.745Z,18.60
2018-07-19T14:23:38.468Z,18.60
2018-07-19T14:26:06.287Z,18.00
2018-07-19T14:28:33.993Z,17.70
2018-07-19T14:31:01.827Z,17.40
2018-07-19T14:33:29.541Z,17.50
2018-07-19T14:35:57.294Z,17.90
2018-07-19T14:38:25.136Z,18.70
2018-07-19T14:40:52.828Z,17.80
2018-07-19T14:43:20.518Z,17.60
2018-07-19T14:45:48.226Z,17.40
2018-07-19T14:48:16.039Z,17.60
2018-07-19T14:50:43.793Z,17.90
2018-07-19T14:53:11.533Z,17.70
2018-07-19T14:55:39.305Z,18.00
2018-07-19T15:00:34.777Z,17.90
2018-07-19T15:03:02.643Z,17.80
2018-07-19T15:05:30.409Z,17.60
2018-07-19T15:07:58.166Z,17.50
2018-07-19T15:10:25.940Z,17.40
2018-07-19T15:12:53.687Z,17.50
2018-07-19T15:15:21.448Z,17.80
2018-07-19T15:17:49.137Z,17.80
2018-07-19T15:20:16.875Z,18.50
2018-07-19T15:22:44.924Z,18.60
2018-07-19T15:25:12.738Z,18.50
2018-07-19T15:27:40.483Z,18.20
2018-07-19T15:35:04.311Z,17.60
2018-07-19T15:37:32.076Z,18.20
2018-07-19T15:39:59.760Z,18.90
2018-07-19T15:42:27.493Z,18.70
2018-07-19T15:44:55.261Z,18.70
2018-07-19T15:47:22.960Z,19.00
2018-07-19T15:49:50.757Z,19.20
2018-07-19T15:52:18.599Z,19.70
2018-07-19T15:54:46.398Z,19.60
2018-07-19T15:57:14.114Z,19.30
2018-07-19T15:59:41.836Z,19.50
2018-07-19T16:02:09.544Z,19.70
2018-07-19T16:04:37.272Z,19.80
2018-07-19T16:07:05.057Z,19.60
2018-07-19T16:09:32.899Z,19.90
2018-07-19T16:12:00.615Z,19.90
2018-07-19T16:14:28.322Z,19.80
2018-07-19T16:19:23.807Z,19.90
2018-07-19T16:21:51.528Z,20.20
2018-07-19T16:24:19.239Z,20.40
2018-07-19T16:26:46.987Z,20.40
2018-07-19T16:29:14.781Z,20.50
2018-07-19T16:31:42.512Z,20.60
2018-07-19T16:34:10.229Z,20.70
2018-07-19T16:36:37.902Z,21.00
2018-07-19T16:39:08.079Z,21.10
2018-07-19T16:41:36.100Z,21.20
2018-07-19T16:44:03.810Z,21.00
2018-07-19T16:46:31.601Z,21.10
2018-07-19T16:48:59.375Z,21.20
2018-07-19T16:51:27.077Z,21.50
2018-07-19T16:53:54.768Z,21.80
2018-07-19T16:56:22.487Z,22.20
2018-07-19T16:58:50.192Z,22.80
2018-07-19T17:01:18.226Z,22.90
2018-07-19T17:03:46.249Z,23.00
2018-07-19T17:06:14.983Z,23.10
2018-07-19T17:08:42.791Z,23.20
2018-07-19T17:11:10.641Z,23.50
2018-07-19T17:13:38.538Z,23.50
2018-07-19T17:16:06.497Z,23.70
2018-07-19T17:18:35.016Z,23.70
2018-07-19T17:21:02.903Z,23.80
2018-07-19T17:23:30.903Z,23.80
2018-07-19T17:25:59.691Z,23.90
2018-07-19T17:28:27.470Z,24.00
2018-07-19T17:30:55.188Z,24.00
2018-07-19T17:35:50.949Z,24.00
2018-07-19T17:38:18.648Z,24.00
2018-07-19T17:40:46.453Z,23.70
2018-07-19T17:43:14.149Z,23.60
2018-07-19T17:45:41.890Z,23.30
2018-07-19T17:48:09.565Z,23.10
2018-07-19T17:50:37.384Z,22.70
2018-07-19T17:57:40.190Z,23.00
2018-07-19T18:00:07.986Z,22.90
2018-07-19T18:02:35.721Z,23.70
2018-07-19T18:05:03.603Z,23.10
2018-07-19T18:07:31.329Z,22.70
2018-07-19T18:09:59.049Z,23.10
2018-07-19T18:12:26.800Z,22.80
2018-07-19T18:14:54.558Z,22.50
2018-07-19T18:17:22.350Z,22.60
2018-07-19T18:19:50.085Z,22.60
2018-07-19T18:22:17.821Z,22.50
2018-07-19T18:24:45.594Z,22.30
2018-07-19T18:27:13.358Z,22.40
2018-07-19T18:29:41.069Z,22.50
2018-07-19T18:32:08.779Z,22.50
2018-07-19T18:34:36.500Z,22.80
2018-07-19T18:37:04.247Z,22.70
2018-07-19T18:39:31.957Z,22.70
2018-07-19T18:41:59.711Z,22.90
2018-07-19T18:44:27.418Z,23.10
2018-07-19T18:46:55.106Z,23.30
2018-07-19T18:49:22.817Z,23.40
2018-07-19T18:51:50.575Z,23.60
2018-07-19T18:54:18.331Z,23.80
2018-07-19T18:56:46.025Z,24.30
2018-07-19T18:59:13.708Z,23.90
2018-07-19T19:01:41.405Z,24.00
2018-07-19T19:04:09.133Z,23.90
2018-07-19T19:06:37.079Z,24.30
2018-07-19T19:09:08.207Z,25.00
2018-07-19T19:11:35.931Z,24.60
2018-07-19T19:14:04.157Z,25.00
2018-07-19T19:16:31.878Z,25.10
2018-07-19T19:18:59.843Z,25.30
2018-07-19T19:21:27.669Z,25.20
2018-07-19T19:23:55.705Z,25.20
2018-07-19T19:26:23.449Z,25.40
2018-07-19T19:28:51.282Z,25.90
2018-07-19T19:31:19.288Z,25.90
2018-07-19T19:33:47.015Z,26.40
2018-07-19T19:36:14.743Z,27.10
2018-07-19T19:38:42.840Z,27.20
2018-07-19T19:41:10.917Z,27.40
2018-07-19T19:43:38.835Z,28.00
2018-07-19T19:46:06.729Z,28.80
2018-07-19T19:48:34.997Z,29.10
2018-07-19T19:53:31.645Z,29.90
2018-07-19T19:55:59.398Z,30.30
2018-07-19T19:58:27.210Z,30.80
2018-07-19T20:03:22.883Z,31.20
2018-07-19T20:05:50.635Z,31.40
2018-07-19T20:08:18.418Z,31.70
2018-07-19T20:10:46.214Z,32.10
2018-07-19T20:13:14.750Z,32.30
2018-07-19T20:15:42.481Z,32.40
2018-07-19T20:18:10.608Z,32.80
2018-07-19T20:20:38.416Z,33.20
2018-07-19T20:23:06.193Z,33.50
2018-07-19T20:25:33.973Z,33.90
2018-07-19T20:30:29.749Z,35.30
2018-07-19T20:32:57.624Z,34.90
2018-07-19T20:35:25.396Z,35.30
2018-07-19T20:37:53.174Z,35.70
2018-07-19T20:40:20.969Z,36.20
2018-07-19T20:42:48.751Z,36.90
2018-07-19T20:45:16.528Z,37.20
2018-07-19T20:47:44.280Z,37.30
2018-07-19T20:50:12.011Z,37.80
2018-07-19T20:52:39.778Z,38.20
2018-07-19T20:55:08.104Z,38.40
2018-07-19T20:57:35.914Z,38.80
2018-07-19T21:00:04.626Z,39.30
2018-07-19T21:02:32.502Z,39.50
2018-07-19T21:05:00.294Z,39.70
2018-07-19T21:07:28.024Z,39.90
2018-07-19T21:09:55.858Z,40.10
2018-07-19T21:12:23.705Z,40.70
2018-07-19T21:14:51.577Z,41.00
2018-07-19T21:17:19.340Z,41.50
2018-07-19T21:19:47.116Z,41.70
2018-07-19T21:22:14.924Z,41.80
2018-07-19T21:27:10.511Z,42.50
2018-07-19T21:29:38.266Z,42.70
2018-07-19T21:32:06.085Z,43.10
2018-07-19T21:34:33.855Z,43.20
2018-07-19T21:37:01.578Z,43.40
2018-07-19T21:39:29.308Z,43.70
2018-07-19T21:41:57.063Z,43.80
2018-07-19T21:44:24.735Z,46.00
2018-07-19T21:46:52.430Z,44.20
2018-07-19T21:49:20.106Z,44.50
2018-07-19T21:51:48.144Z,44.70
2018-07-19T21:54:16.270Z,44.90
2018-07-19T21:56:43.981Z,45.30
2018-07-19T21:59:11.672Z,45.20
2018-07-19T22:01:43.322Z,45.10
2018-07-19T22:04:11.341Z,45.20
2018-07-19T22:06:39.135Z,45.50
2018-07-19T22:09:09.062Z,45.30
2018-07-19T22:11:37.019Z,45.50
2018-07-19T22:14:05.306Z,45.70
2018-07-19T22:16:33.056Z,45.70
2018-07-19T22:19:01.177Z,46.20
2018-07-19T22:21:28.910Z,46.30
2018-07-19T22:23:56.598Z,46.30
2018-07-19T22:26:25.362Z,46.40
2018-07-19T22:28:53.158Z,46.30
2018-07-19T22:31:20.857Z,46.40
2018-07-19T22:33:48.878Z,46.30
2018-07-19T22:36:16.748Z,46.60
2018-07-19T22:38:44.555Z,46.60
2018-07-19T22:41:12.386Z,47.10
2018-07-19T22:43:40.209Z,47.60
2018-07-19T22:46:07.903Z,47.80
2018-07-19T22:48:35.594Z,47.70
2018-07-19T22:51:03.382Z,47.70
2018-07-19T22:53:31.075Z,47.60
2018-07-19T22:55:58.784Z,47.50
2018-07-19T22:58:26.470Z,47.90
2018-07-19T23:00:54.198Z,47.90
2018-07-19T23:03:22.105Z,48.10
2018-07-19T23:05:50.070Z,48.30
2018-07-19T23:08:17.790Z,48.50
2018-07-19T23:10:45.515Z,48.90
2018-07-19T23:13:13.215Z,48.70
2018-07-19T23:15:40.948Z,49.00
2018-07-19T23:18:08.699Z,49.30
2018-07-19T23:20:36.442Z,49.60
2018-07-19T23:23:04.166Z,49.70
2018-07-19T23:25:31.853Z,49.70
2018-07-19T23:27:59.602Z,49.80
2018-07-19T23:30:32.305Z,49.90
2018-07-19T23:33:00.015Z,49.60
2018-07-19T23:35:35.427Z,49.50
2018-07-19T23:38:06.039Z,49.40
2018-07-19T23:40:36.425Z,49.20
2018-07-19T23:43:08.791Z,49.30
2018-07-19T23:46:39.198Z,49.40
2018-07-19T23:49:07.290Z,49.30
2018-07-19T23:51:36.730Z,49.90
2018-07-19T23:54:04.455Z,50.00
2018-07-19T23:56:32.533Z,50.00
2018-07-19T23:59:00.272Z,50.10
